sensor_id;sensor_type;location;lat;lon;timestamp;P1;durP1;ratioP1;P2;durP2;ratioP2
19621;SDS011;9958;33.196;-97.114;2022-11-15T00:01:19;1.38;;;1.25;;
19621;SDS011;9958;33.196;-97.114;2022-11-15T00:03:50;0.90;;;0.90;;
19621;SDS011;9958;33.196;-97.114;2022-11-15T00:06:19;0.85;;;0.85;;
19621;SDS011;9958;33.196;-97.114;2022-11-15T00:08:47;0.93;;;0.90;;
19621;SDS011;9958;33.196;-97.114;2022-11-15T00:11:16;0.75;;;0.75;;
19621;SDS011;9958;33.196;-97.114;2022-11-15T00:13:44;0.77;;;0.77;;
19621;SDS011;9958;33.196;-97.114;2022-11-15T00:16:14;0.60;;;0.60;;
19621;SDS011;9958;33.196;-97.114;2022-11-15T00:18:43;0.70;;;0.70;;
19621;SDS011;9958;33.196;-97.114;2022-11-15T00:21:11;0.52;;;0.52;;
19621;SDS011;9958;33.196;-97.114;2022-11-15T00:23:41;1.02;;;1.02;;
19621;SDS011;9958;33.196;-97.114;2022-11-15T00:26:10;0.52;;;0.52;;
19621;SDS011;9958;33.196;-97.114;2022-11-15T00:28:40;1.25;;;0.95;;
19621;SDS011;9958;33.196;-97.114;2022-11-15T00:31:09;1.08;;;0.98;;
19621;SDS011;9958;33.196;-97.114;2022-11-15T00:33:44;0.70;;;0.70;;
19621;SDS011;9958;33.196;-97.114;2022-11-15T00:36:12;0.93;;;0.93;;
19621;SDS011;9958;33.196;-97.114;2022-11-15T00:38:41;1.77;;;1.40;;
19621;SDS011;9958;33.196;-97.114;2022-11-15T00:41:09;2.15;;;1.58;;
19621;SDS011;9958;33.196;-97.114;2022-11-15T00:43:37;3.60;;;1.75;;
19621;SDS011;9958;33.196;-97.114;2022-11-15T00:46:09;3.72;;;2.30;;
19621;SDS011;9958;33.196;-97.114;2022-11-15T00:48:37;2.65;;;1.40;;
19621;SDS011;9958;33.196;-97.114;2022-11-15T00:51:07;2.80;;;1.92;;
19621;SDS011;9958;33.196;-97.114;2022-11-15T00:53:35;3.88;;;1.88;;
19621;SDS011;9958;33.196;-97.114;2022-11-15T00:56:03;4.65;;;2.45;;
19621;SDS011;9958;33.196;-97.114;2022-11-15T00:58:32;3.30;;;2.33;;
19621;SDS011;9958;33.196;-97.114;2022-11-15T01:01:06;1.30;;;1.20;;
19621;SDS011;9958;33.196;-97.114;2022-11-15T01:03:36;2.45;;;1.48;;
19621;SDS011;9958;33.196;-97.114;2022-11-15T01:06:07;2.67;;;1.25;;
19621;SDS011;9958;33.196;-97.114;2022-11-15T01:08:37;0.98;;;0.98;;
19621;SDS011;9958;33.196;-97.114;2022-11-15T01:11:06;0.60;;;0.60;;
19621;SDS011;9958;33.196;-97.114;2022-11-15T01:13:36;1.35;;;1.05;;
19621;SDS011;9958;33.196;-97.114;2022-11-15T01:16:09;0.82;;;0.82;;
19621;SDS011;9958;33.196;-97.114;2022-11-15T01:18:39;1.10;;;0.73;;
19621;SDS011;9958;33.196;-97.114;2022-11-15T01:21:10;1.48;;;1.10;;
19621;SDS011;9958;33.196;-97.114;2022-11-15T01:23:40;4.65;;;1.35;;
19621;SDS011;9958;33.196;-97.114;2022-11-15T01:26:10;1.23;;;0.90;;
19621;SDS011;9958;33.196;-97.114;2022-11-15T01:28:40;1.33;;;0.95;;
19621;SDS011;9958;33.196;-97.114;2022-11-15T01:31:11;1.30;;;1.10;;
19621;SDS011;9958;33.196;-97.114;2022-11-15T01:33:40;1.50;;;1.00;;
19621;SDS011;9958;33.196;-97.114;2022-11-15T01:36:12;1.48;;;1.38;;
19621;SDS011;9958;33.196;-97.114;2022-11-15T01:38:42;1.00;;;1.00;;
19621;SDS011;9958;33.196;-97.114;2022-11-15T01:41:15;1.00;;;0.90;;
19621;SDS011;9958;33.196;-97.114;2022-11-15T01:43:46;0.90;;;0.90;;
19621;SDS011;9958;33.196;-97.114;2022-11-15T01:46:22;1.10;;;1.00;;
19621;SDS011;9958;33.196;-97.114;2022-11-15T01:48:56;0.88;;;0.88;;
19621;SDS011;9958;33.196;-97.114;2022-11-15T01:51:30;1.10;;;0.93;;
19621;SDS011;9958;33.196;-97.114;2022-11-15T01:54:02;1.23;;;1.13;;
19621;SDS011;9958;33.196;-97.114;2022-11-15T01:56:36;1.25;;;0.98;;
19621;SDS011;9958;33.196;-97.114;2022-11-15T01:59:12;2.40;;;1.30;;
19621;SDS011;9958;33.196;-97.114;2022-11-15T02:01:41;1.50;;;0.93;;
19621;SDS011;9958;33.196;-97.114;2022-11-15T02:04:11;1.48;;;1.33;;
19621;SDS011;9958;33.196;-97.114;2022-11-15T02:06:44;2.00;;;1.00;;
19621;SDS011;9958;33.196;-97.114;2022-11-15T02:09:14;0.90;;;0.90;;
19621;SDS011;9958;33.196;-97.114;2022-11-15T02:11:43;1.52;;;0.90;;
19621;SDS011;9958;33.196;-97.114;2022-11-15T02:14:12;0.80;;;0.65;;
19621;SDS011;9958;33.196;-97.114;2022-11-15T02:16:44;0.95;;;0.90;;
19621;SDS011;9958;33.196;-97.114;2022-11-15T02:19:29;0.90;;;0.90;;
19621;SDS011;9958;33.196;-97.114;2022-11-15T02:22:14;1.05;;;0.50;;
19621;SDS011;9958;33.196;-97.114;2022-11-15T02:25:01;0.65;;;0.65;;
19621;SDS011;9958;33.196;-97.114;2022-11-15T02:27:52;1.02;;;0.88;;
19621;SDS011;9958;33.196;-97.114;2022-11-15T02:30:43;1.08;;;1.00;;
19621;SDS011;9958;33.196;-97.114;2022-11-15T02:33:19;0.77;;;0.77;;
19621;SDS011;9958;33.196;-97.114;2022-11-15T02:35:58;1.50;;;1.02;;
19621;SDS011;9958;33.196;-97.114;2022-11-15T02:38:30;1.67;;;1.08;;
19621;SDS011;9958;33.196;-97.114;2022-11-15T02:41:04;0.90;;;0.82;;
19621;SDS011;9958;33.196;-97.114;2022-11-15T02:43:38;1.20;;;1.00;;
19621;SDS011;9958;33.196;-97.114;2022-11-15T02:46:24;1.10;;;1.08;;
19621;SDS011;9958;33.196;-97.114;2022-11-15T02:49:10;1.63;;;1.20;;
19621;SDS011;9958;33.196;-97.114;2022-11-15T02:51:40;1.65;;;1.10;;
19621;SDS011;9958;33.196;-97.114;2022-11-15T02:54:11;1.00;;;0.95;;
19621;SDS011;9958;33.196;-97.114;2022-11-15T02:56:42;1.60;;;1.50;;
19621;SDS011;9958;33.196;-97.114;2022-11-15T02:59:23;1.80;;;1.27;;
19621;SDS011;9958;33.196;-97.114;2022-11-15T03:02:08;1.30;;;1.10;;
19621;SDS011;9958;33.196;-97.114;2022-11-15T03:04:52;1.52;;;1.42;;
19621;SDS011;9958;33.196;-97.114;2022-11-15T03:07:24;1.98;;;1.35;;
19621;SDS011;9958;33.196;-97.114;2022-11-15T03:09:57;1.40;;;1.30;;
19621;SDS011;9958;33.196;-97.114;2022-11-15T03:12:34;3.13;;;1.75;;
19621;SDS011;9958;33.196;-97.114;2022-11-15T03:15:09;2.00;;;1.13;;
19621;SDS011;9958;33.196;-97.114;2022-11-15T03:17:47;1.50;;;1.40;;
19621;SDS011;9958;33.196;-97.114;2022-11-15T03:20:21;1.58;;;1.33;;
19621;SDS011;9958;33.196;-97.114;2022-11-15T03:22:51;0.98;;;0.93;;
19621;SDS011;9958;33.196;-97.114;2022-11-15T03:25:24;0.93;;;0.93;;
19621;SDS011;9958;33.196;-97.114;2022-11-15T03:27:54;2.45;;;1.48;;
19621;SDS011;9958;33.196;-97.114;2022-11-15T03:30:24;1.50;;;1.20;;
19621;SDS011;9958;33.196;-97.114;2022-11-15T03:32:55;2.17;;;1.50;;
19621;SDS011;9958;33.196;-97.114;2022-11-15T03:35:25;1.27;;;1.20;;
19621;SDS011;9958;33.196;-97.114;2022-11-15T03:37:57;1.30;;;1.20;;
19621;SDS011;9958;33.196;-97.114;2022-11-15T03:40:34;1.70;;;1.02;;
19621;SDS011;9958;33.196;-97.114;2022-11-15T03:43:07;1.48;;;1.08;;
19621;SDS011;9958;33.196;-97.114;2022-11-15T03:45:43;1.40;;;1.30;;
19621;SDS011;9958;33.196;-97.114;2022-11-15T03:48:20;0.75;;;0.73;;
19621;SDS011;9958;33.196;-97.114;2022-11-15T03:50:51;1.05;;;1.00;;
19621;SDS011;9958;33.196;-97.114;2022-11-15T03:53:20;0.95;;;0.88;;
19621;SDS011;9958;33.196;-97.114;2022-11-15T03:55:49;1.08;;;0.98;;
19621;SDS011;9958;33.196;-97.114;2022-11-15T03:58:17;2.60;;;1.58;;
19621;SDS011;9958;33.196;-97.114;2022-11-15T04:00:46;1.27;;;1.17;;
19621;SDS011;9958;33.196;-97.114;2022-11-15T04:03:14;1.55;;;1.20;;
19621;SDS011;9958;33.196;-97.114;2022-11-15T04:05:44;1.25;;;1.15;;
19621;SDS011;9958;33.196;-97.114;2022-11-15T04:08:13;3.55;;;1.00;;
19621;SDS011;9958;33.196;-97.114;2022-11-15T04:10:41;1.38;;;1.27;;
19621;SDS011;9958;33.196;-97.114;2022-11-15T04:13:10;2.00;;;1.50;;
19621;SDS011;9958;33.196;-97.114;2022-11-15T04:15:38;1.13;;;1.02;;
19621;SDS011;9958;33.196;-97.114;2022-11-15T04:18:06;1.42;;;1.30;;
19621;SDS011;9958;33.196;-97.114;2022-11-15T04:20:34;1.20;;;1.10;;
19621;SDS011;9958;33.196;-97.114;2022-11-15T04:23:22;0.93;;;0.85;;
19621;SDS011;9958;33.196;-97.114;2022-11-15T04:26:08;2.67;;;1.48;;
19621;SDS011;9958;33.196;-97.114;2022-11-15T04:28:38;1.73;;;1.23;;
19621;SDS011;9958;33.196;-97.114;2022-11-15T04:31:26;1.42;;;1.17;;
19621;SDS011;9958;33.196;-97.114;2022-11-15T04:33:54;0.90;;;0.90;;
19621;SDS011;9958;33.196;-97.114;2022-11-15T04:36:23;1.58;;;1.30;;
19621;SDS011;9958;33.196;-97.114;2022-11-15T04:39:10;0.93;;;0.90;;
19621;SDS011;9958;33.196;-97.114;2022-11-15T04:41:38;2.78;;;1.00;;
19621;SDS011;9958;33.196;-97.114;2022-11-15T04:44:06;1.17;;;1.08;;
19621;SDS011;9958;33.196;-97.114;2022-11-15T04:46:35;0.93;;;0.80;;
19621;SDS011;9958;33.196;-97.114;2022-11-15T04:49:03;1.35;;;0.75;;
19621;SDS011;9958;33.196;-97.114;2022-11-15T04:51:31;2.10;;;1.08;;
19621;SDS011;9958;33.196;-97.114;2022-11-15T04:53:59;1.85;;;1.10;;
19621;SDS011;9958;33.196;-97.114;2022-11-15T04:56:29;0.77;;;0.77;;
19621;SDS011;9958;33.196;-97.114;2022-11-15T04:58:57;1.00;;;0.77;;
19621;SDS011;9958;33.196;-97.114;2022-11-15T05:01:26;1.40;;;0.73;;
19621;SDS011;9958;33.196;-97.114;2022-11-15T05:03:54;0.70;;;0.70;;
19621;SDS011;9958;33.196;-97.114;2022-11-15T05:06:39;0.57;;;0.57;;
19621;SDS011;9958;33.196;-97.114;2022-11-15T05:09:08;0.82;;;0.82;;
19621;SDS011;9958;33.196;-97.114;2022-11-15T05:11:40;1.23;;;1.13;;
19621;SDS011;9958;33.196;-97.114;2022-11-15T05:14:08;1.00;;;0.70;;
19621;SDS011;9958;33.196;-97.114;2022-11-15T05:16:36;1.23;;;0.80;;
19621;SDS011;9958;33.196;-97.114;2022-11-15T05:19:05;0.70;;;0.70;;
19621;SDS011;9958;33.196;-97.114;2022-11-15T05:21:33;0.90;;;0.90;;
19621;SDS011;9958;33.196;-97.114;2022-11-15T05:24:02;0.95;;;0.88;;
19621;SDS011;9958;33.196;-97.114;2022-11-15T05:26:31;0.77;;;0.70;;
19621;SDS011;9958;33.196;-97.114;2022-11-15T05:29:00;0.65;;;0.65;;
19621;SDS011;9958;33.196;-97.114;2022-11-15T05:31:29;0.77;;;0.68;;
19621;SDS011;9958;33.196;-97.114;2022-11-15T05:33:57;0.80;;;0.80;;
19621;SDS011;9958;33.196;-97.114;2022-11-15T05:36:29;1.27;;;1.17;;
19621;SDS011;9958;33.196;-97.114;2022-11-15T05:39:02;0.68;;;0.65;;
19621;SDS011;9958;33.196;-97.114;2022-11-15T05:41:32;1.02;;;0.70;;
19621;SDS011;9958;33.196;-97.114;2022-11-15T05:44:07;1.08;;;1.00;;
19621;SDS011;9958;33.196;-97.114;2022-11-15T05:46:37;0.68;;;0.65;;
19621;SDS011;9958;33.196;-97.114;2022-11-15T05:49:08;1.20;;;0.88;;
19621;SDS011;9958;33.196;-97.114;2022-11-15T05:51:40;1.48;;;0.70;;
19621;SDS011;9958;33.196;-97.114;2022-11-15T05:54:10;0.63;;;0.63;;
19621;SDS011;9958;33.196;-97.114;2022-11-15T05:56:39;0.55;;;0.55;;
19621;SDS011;9958;33.196;-97.114;2022-11-15T05:59:08;0.55;;;0.47;;
19621;SDS011;9958;33.196;-97.114;2022-11-15T06:01:38;0.73;;;0.63;;
19621;SDS011;9958;33.196;-97.114;2022-11-15T06:04:07;0.60;;;0.60;;
19621;SDS011;9958;33.196;-97.114;2022-11-15T06:06:35;0.63;;;0.63;;
19621;SDS011;9958;33.196;-97.114;2022-11-15T06:09:03;0.77;;;0.70;;
19621;SDS011;9958;33.196;-97.114;2022-11-15T06:11:31;0.50;;;0.50;;
19621;SDS011;9958;33.196;-97.114;2022-11-15T06:14:00;0.60;;;0.60;;
19621;SDS011;9958;33.196;-97.114;2022-11-15T06:16:30;0.85;;;0.60;;
19621;SDS011;9958;33.196;-97.114;2022-11-15T06:18:58;0.45;;;0.45;;
19621;SDS011;9958;33.196;-97.114;2022-11-15T06:21:26;0.77;;;0.77;;
19621;SDS011;9958;33.196;-97.114;2022-11-15T06:23:54;0.70;;;0.43;;
19621;SDS011;9958;33.196;-97.114;2022-11-15T06:26:23;0.55;;;0.55;;
19621;SDS011;9958;33.196;-97.114;2022-11-15T06:28:51;0.68;;;0.68;;
19621;SDS011;9958;33.196;-97.114;2022-11-15T06:31:19;1.35;;;0.82;;
19621;SDS011;9958;33.196;-97.114;2022-11-15T06:33:49;0.80;;;0.80;;
19621;SDS011;9958;33.196;-97.114;2022-11-15T06:36:17;0.43;;;0.43;;
19621;SDS011;9958;33.196;-97.114;2022-11-15T06:38:46;0.60;;;0.60;;
19621;SDS011;9958;33.196;-97.114;2022-11-15T06:41:14;0.80;;;0.80;;
19621;SDS011;9958;33.196;-97.114;2022-11-15T06:43:43;0.85;;;0.85;;
19621;SDS011;9958;33.196;-97.114;2022-11-15T06:46:11;1.00;;;0.90;;
19621;SDS011;9958;33.196;-97.114;2022-11-15T06:48:40;0.63;;;0.63;;
19621;SDS011;9958;33.196;-97.114;2022-11-15T06:51:09;1.20;;;1.10;;
19621;SDS011;9958;33.196;-97.114;2022-11-15T06:53:38;0.57;;;0.57;;
19621;SDS011;9958;33.196;-97.114;2022-11-15T06:56:06;0.80;;;0.80;;
19621;SDS011;9958;33.196;-97.114;2022-11-15T06:58:35;0.80;;;0.80;;
19621;SDS011;9958;33.196;-97.114;2022-11-15T07:01:04;0.82;;;0.82;;
19621;SDS011;9958;33.196;-97.114;2022-11-15T07:03:34;0.60;;;0.60;;
19621;SDS011;9958;33.196;-97.114;2022-11-15T07:06:02;1.65;;;0.95;;
19621;SDS011;9958;33.196;-97.114;2022-11-15T07:08:33;0.85;;;0.60;;
19621;SDS011;9958;33.196;-97.114;2022-11-15T07:11:02;0.60;;;0.60;;
19621;SDS011;9958;33.196;-97.114;2022-11-15T07:13:33;0.50;;;0.50;;
19621;SDS011;9958;33.196;-97.114;2022-11-15T07:16:02;0.45;;;0.45;;
19621;SDS011;9958;33.196;-97.114;2022-11-15T07:18:33;0.52;;;0.52;;
19621;SDS011;9958;33.196;-97.114;2022-11-15T07:21:02;0.55;;;0.55;;
19621;SDS011;9958;33.196;-97.114;2022-11-15T07:23:33;0.73;;;0.73;;
19621;SDS011;9958;33.196;-97.114;2022-11-15T07:26:04;2.25;;;0.70;;
19621;SDS011;9958;33.196;-97.114;2022-11-15T07:28:32;0.50;;;0.50;;
19621;SDS011;9958;33.196;-97.114;2022-11-15T07:31:01;0.52;;;0.52;;
19621;SDS011;9958;33.196;-97.114;2022-11-15T07:33:30;0.70;;;0.70;;
19621;SDS011;9958;33.196;-97.114;2022-11-15T07:35:58;0.60;;;0.60;;
19621;SDS011;9958;33.196;-97.114;2022-11-15T07:38:28;0.65;;;0.65;;
19621;SDS011;9958;33.196;-97.114;2022-11-15T07:40:58;0.80;;;0.80;;
19621;SDS011;9958;33.196;-97.114;2022-11-15T07:43:28;1.25;;;1.15;;
19621;SDS011;9958;33.196;-97.114;2022-11-15T07:45:58;0.98;;;0.98;;
19621;SDS011;9958;33.196;-97.114;2022-11-15T07:48:30;0.90;;;0.90;;
19621;SDS011;9958;33.196;-97.114;2022-11-15T07:50:59;1.40;;;1.30;;
19621;SDS011;9958;33.196;-97.114;2022-11-15T07:53:27;1.85;;;1.38;;
19621;SDS011;9958;33.196;-97.114;2022-11-15T07:55:55;1.90;;;1.40;;
19621;SDS011;9958;33.196;-97.114;2022-11-15T07:58:25;1.58;;;1.48;;
19621;SDS011;9958;33.196;-97.114;2022-11-15T08:00:53;1.60;;;1.50;;
19621;SDS011;9958;33.196;-97.114;2022-11-15T08:03:22;1.75;;;1.65;;
19621;SDS011;9958;33.196;-97.114;2022-11-15T08:05:50;1.77;;;1.67;;
19621;SDS011;9958;33.196;-97.114;2022-11-15T08:08:18;1.70;;;1.60;;
19621;SDS011;9958;33.196;-97.114;2022-11-15T08:10:47;1.50;;;1.40;;
19621;SDS011;9958;33.196;-97.114;2022-11-15T08:13:17;2.03;;;1.88;;
19621;SDS011;9958;33.196;-97.114;2022-11-15T08:15:45;1.45;;;1.35;;
19621;SDS011;9958;33.196;-97.114;2022-11-15T08:18:14;2.22;;;2.00;;
19621;SDS011;9958;33.196;-97.114;2022-11-15T08:20:43;2.33;;;2.10;;
19621;SDS011;9958;33.196;-97.114;2022-11-15T08:23:11;3.45;;;2.50;;
19621;SDS011;9958;33.196;-97.114;2022-11-15T08:25:39;2.75;;;2.40;;
19621;SDS011;9958;33.196;-97.114;2022-11-15T08:28:09;3.17;;;2.13;;
19621;SDS011;9958;33.196;-97.114;2022-11-15T08:30:39;3.88;;;2.92;;
19621;SDS011;9958;33.196;-97.114;2022-11-15T08:33:11;3.65;;;2.97;;
19621;SDS011;9958;33.196;-97.114;2022-11-15T08:35:40;3.88;;;2.88;;
19621;SDS011;9958;33.196;-97.114;2022-11-15T08:38:09;3.25;;;2.60;;
19621;SDS011;9958;33.196;-97.114;2022-11-15T08:40:38;4.40;;;3.00;;
19621;SDS011;9958;33.196;-97.114;2022-11-15T08:43:08;4.57;;;3.35;;
19621;SDS011;9958;33.196;-97.114;2022-11-15T08:45:36;2.75;;;2.50;;
19621;SDS011;9958;33.196;-97.114;2022-11-15T08:48:06;4.18;;;3.03;;
19621;SDS011;9958;33.196;-97.114;2022-11-15T08:50:34;3.15;;;2.63;;
19621;SDS011;9958;33.196;-97.114;2022-11-15T08:53:06;4.03;;;3.00;;
19621;SDS011;9958;33.196;-97.114;2022-11-15T08:55:36;3.85;;;2.72;;
19621;SDS011;9958;33.196;-97.114;2022-11-15T08:58:04;4.47;;;3.08;;
19621;SDS011;9958;33.196;-97.114;2022-11-15T09:00:33;3.00;;;2.70;;
19621;SDS011;9958;33.196;-97.114;2022-11-15T09:03:03;4.22;;;2.78;;
19621;SDS011;9958;33.196;-97.114;2022-11-15T09:05:35;4.47;;;3.17;;
19621;SDS011;9958;33.196;-97.114;2022-11-15T09:08:04;4.65;;;3.65;;
19621;SDS011;9958;33.196;-97.114;2022-11-15T09:10:32;4.75;;;3.22;;
19621;SDS011;9958;33.196;-97.114;2022-11-15T09:13:01;3.63;;;3.00;;
19621;SDS011;9958;33.196;-97.114;2022-11-15T09:15:30;4.22;;;3.00;;
19621;SDS011;9958;33.196;-97.114;2022-11-15T09:17:58;4.65;;;3.00;;
19621;SDS011;9958;33.196;-97.114;2022-11-15T09:20:28;3.58;;;2.80;;
19621;SDS011;9958;33.196;-97.114;2022-11-15T09:22:59;3.60;;;2.70;;
19621;SDS011;9958;33.196;-97.114;2022-11-15T09:25:28;4.25;;;2.97;;
19621;SDS011;9958;33.196;-97.114;2022-11-15T09:27:56;5.78;;;3.33;;
19621;SDS011;9958;33.196;-97.114;2022-11-15T09:30:25;5.25;;;3.35;;
19621;SDS011;9958;33.196;-97.114;2022-11-15T09:32:53;5.50;;;3.53;;
19621;SDS011;9958;33.196;-97.114;2022-11-15T09:35:22;6.32;;;3.42;;
19621;SDS011;9958;33.196;-97.114;2022-11-15T09:37:51;4.80;;;3.63;;
19621;SDS011;9958;33.196;-97.114;2022-11-15T09:40:20;4.47;;;3.42;;
19621;SDS011;9958;33.196;-97.114;2022-11-15T09:42:52;4.05;;;3.45;;
19621;SDS011;9958;33.196;-97.114;2022-11-15T09:45:30;4.40;;;2.90;;
19621;SDS011;9958;33.196;-97.114;2022-11-15T09:50:57;4.97;;;3.28;;
19621;SDS011;9958;33.196;-97.114;2022-11-15T09:53:31;4.05;;;3.22;;
19621;SDS011;9958;33.196;-97.114;2022-11-15T09:56:05;5.90;;;3.67;;
19621;SDS011;9958;33.196;-97.114;2022-11-15T09:58:44;4.93;;;3.50;;
19621;SDS011;9958;33.196;-97.114;2022-11-15T10:01:33;5.32;;;3.45;;
19621;SDS011;9958;33.196;-97.114;2022-11-15T10:04:06;4.57;;;3.22;;
19621;SDS011;9958;33.196;-97.114;2022-11-15T10:06:34;5.13;;;3.63;;
19621;SDS011;9958;33.196;-97.114;2022-11-15T10:09:10;4.70;;;3.50;;
19621;SDS011;9958;33.196;-97.114;2022-11-15T10:11:42;4.70;;;3.45;;
19621;SDS011;9958;33.196;-97.114;2022-11-15T10:14:12;5.60;;;3.35;;
19621;SDS011;9958;33.196;-97.114;2022-11-15T10:16:56;5.72;;;3.53;;
19621;SDS011;9958;33.196;-97.114;2022-11-15T10:19:54;4.72;;;3.20;;
19621;SDS011;9958;33.196;-97.114;2022-11-15T10:22:30;5.00;;;3.45;;
19621;SDS011;9958;33.196;-97.114;2022-11-15T10:25:21;4.32;;;3.50;;
19621;SDS011;9958;33.196;-97.114;2022-11-15T10:27:52;8.55;;;3.42;;
19621;SDS011;9958;33.196;-97.114;2022-11-15T10:30:23;4.63;;;3.13;;
19621;SDS011;9958;33.196;-97.114;2022-11-15T10:32:57;5.85;;;3.55;;
19621;SDS011;9958;33.196;-97.114;2022-11-15T10:35:37;5.70;;;3.90;;
19621;SDS011;9958;33.196;-97.114;2022-11-15T10:38:05;4.47;;;3.10;;
19621;SDS011;9958;33.196;-97.114;2022-11-15T10:40:37;6.47;;;3.90;;
19621;SDS011;9958;33.196;-97.114;2022-11-15T10:43:12;5.90;;;3.65;;
19621;SDS011;9958;33.196;-97.114;2022-11-15T10:45:42;5.60;;;3.20;;
19621;SDS011;9958;33.196;-97.114;2022-11-15T10:48:24;3.92;;;3.15;;
19621;SDS011;9958;33.196;-97.114;2022-11-15T10:50:53;5.38;;;3.53;;
19621;SDS011;9958;33.196;-97.114;2022-11-15T10:53:27;5.40;;;3.15;;
19621;SDS011;9958;33.196;-97.114;2022-11-15T10:56:02;6.10;;;3.55;;
19621;SDS011;9958;33.196;-97.114;2022-11-15T10:58:33;6.25;;;3.83;;
19621;SDS011;9958;33.196;-97.114;2022-11-15T11:01:11;7.22;;;4.45;;
19621;SDS011;9958;33.196;-97.114;2022-11-15T11:03:42;5.93;;;3.45;;
19621;SDS011;9958;33.196;-97.114;2022-11-15T11:06:12;6.00;;;3.78;;
19621;SDS011;9958;33.196;-97.114;2022-11-15T11:08:53;8.93;;;4.18;;
19621;SDS011;9958;33.196;-97.114;2022-11-15T11:11:24;6.63;;;3.78;;
19621;SDS011;9958;33.196;-97.114;2022-11-15T11:14:11;6.28;;;4.05;;
19621;SDS011;9958;33.196;-97.114;2022-11-15T11:16:41;5.70;;;3.92;;
19621;SDS011;9958;33.196;-97.114;2022-11-15T11:22:18;5.22;;;3.50;;
19621;SDS011;9958;33.196;-97.114;2022-11-15T11:24:53;6.70;;;3.95;;
19621;SDS011;9958;33.196;-97.114;2022-11-15T11:27:43;6.18;;;3.65;;
19621;SDS011;9958;33.196;-97.114;2022-11-15T11:30:20;5.53;;;3.92;;
19621;SDS011;9958;33.196;-97.114;2022-11-15T11:32:57;4.97;;;3.15;;
19621;SDS011;9958;33.196;-97.114;2022-11-15T11:35:38;5.53;;;3.90;;
19621;SDS011;9958;33.196;-97.114;2022-11-15T11:38:17;6.00;;;3.80;;
19621;SDS011;9958;33.196;-97.114;2022-11-15T11:40:59;5.88;;;3.53;;
19621;SDS011;9958;33.196;-97.114;2022-11-15T11:43:36;5.82;;;3.22;;
19621;SDS011;9958;33.196;-97.114;2022-11-15T11:46:27;5.45;;;4.10;;
19621;SDS011;9958;33.196;-97.114;2022-11-15T11:49:15;4.53;;;3.25;;
19621;SDS011;9958;33.196;-97.114;2022-11-15T11:51:47;8.45;;;4.50;;
19621;SDS011;9958;33.196;-97.114;2022-11-15T11:54:22;5.13;;;3.40;;
19621;SDS011;9958;33.196;-97.114;2022-11-15T11:56:59;5.78;;;3.65;;
19621;SDS011;9958;33.196;-97.114;2022-11-15T11:59:33;5.53;;;3.92;;
19621;SDS011;9958;33.196;-97.114;2022-11-15T12:02:11;5.43;;;3.50;;
19621;SDS011;9958;33.196;-97.114;2022-11-15T12:04:43;8.52;;;3.53;;
19621;SDS011;9958;33.196;-97.114;2022-11-15T12:07:17;7.30;;;4.10;;
19621;SDS011;9958;33.196;-97.114;2022-11-15T12:09:51;4.90;;;3.83;;
19621;SDS011;9958;33.196;-97.114;2022-11-15T12:12:27;5.68;;;3.83;;
19621;SDS011;9958;33.196;-97.114;2022-11-15T12:15:03;5.43;;;4.00;;
19621;SDS011;9958;33.196;-97.114;2022-11-15T12:17:39;7.85;;;4.10;;
19621;SDS011;9958;33.196;-97.114;2022-11-15T12:20:13;6.70;;;3.80;;
19621;SDS011;9958;33.196;-97.114;2022-11-15T12:22:49;6.47;;;3.78;;
19621;SDS011;9958;33.196;-97.114;2022-11-15T12:25:21;7.63;;;3.90;;
19621;SDS011;9958;33.196;-97.114;2022-11-15T12:27:56;6.97;;;3.97;;
19621;SDS011;9958;33.196;-97.114;2022-11-15T12:30:31;6.63;;;4.10;;
19621;SDS011;9958;33.196;-97.114;2022-11-15T12:36:03;7.65;;;4.03;;
19621;SDS011;9958;33.196;-97.114;2022-11-15T12:41:21;6.18;;;4.03;;
19621;SDS011;9958;33.196;-97.114;2022-11-15T12:43:50;6.68;;;3.97;;
19621;SDS011;9958;33.196;-97.114;2022-11-15T12:49:42;5.43;;;3.30;;
19621;SDS011;9958;33.196;-97.114;2022-11-15T12:52:12;5.57;;;4.07;;
19621;SDS011;9958;33.196;-97.114;2022-11-15T12:55:02;7.45;;;4.15;;
19621;SDS011;9958;33.196;-97.114;2022-11-15T12:57:45;5.30;;;3.53;;
19621;SDS011;9958;33.196;-97.114;2022-11-15T13:03:23;5.38;;;3.40;;
19621;SDS011;9958;33.196;-97.114;2022-11-15T13:06:06;3.85;;;3.13;;
19621;SDS011;9958;33.196;-97.114;2022-11-15T13:08:37;5.70;;;3.28;;
19621;SDS011;9958;33.196;-97.114;2022-11-15T13:22:59;6.10;;;3.08;;
19621;SDS011;9958;33.196;-97.114;2022-11-15T13:25:43;4.43;;;3.33;;
19621;SDS011;9958;33.196;-97.114;2022-11-15T13:28:31;5.97;;;3.78;;
19621;SDS011;9958;33.196;-97.114;2022-11-15T13:31:01;5.15;;;2.97;;
19621;SDS011;9958;33.196;-97.114;2022-11-15T13:33:43;4.43;;;3.55;;
19621;SDS011;9958;33.196;-97.114;2022-11-15T13:36:14;4.47;;;3.42;;
19621;SDS011;9958;33.196;-97.114;2022-11-15T13:38:53;5.15;;;3.60;;
19621;SDS011;9958;33.196;-97.114;2022-11-15T13:41:24;6.63;;;3.65;;
19621;SDS011;9958;33.196;-97.114;2022-11-15T13:43:54;4.72;;;2.97;;
19621;SDS011;9958;33.196;-97.114;2022-11-15T13:46:24;6.05;;;3.58;;
19621;SDS011;9958;33.196;-97.114;2022-11-15T13:48:55;6.88;;;4.72;;
19621;SDS011;9958;33.196;-97.114;2022-11-15T13:51:27;5.57;;;3.90;;
19621;SDS011;9958;33.196;-97.114;2022-11-15T13:54:03;5.20;;;3.40;;
19621;SDS011;9958;33.196;-97.114;2022-11-15T13:56:40;6.47;;;3.75;;
19621;SDS011;9958;33.196;-97.114;2022-11-15T13:59:10;6.20;;;3.15;;
19621;SDS011;9958;33.196;-97.114;2022-11-15T14:01:45;3.75;;;2.95;;
19621;SDS011;9958;33.196;-97.114;2022-11-15T14:04:13;8.25;;;3.88;;
19621;SDS011;9958;33.196;-97.114;2022-11-15T14:06:48;4.93;;;3.30;;
19621;SDS011;9958;33.196;-97.114;2022-11-15T14:12:25;6.25;;;2.67;;
19621;SDS011;9958;33.196;-97.114;2022-11-15T14:14:56;5.53;;;3.97;;
19621;SDS011;9958;33.196;-97.114;2022-11-15T14:17:35;5.68;;;3.50;;
19621;SDS011;9958;33.196;-97.114;2022-11-15T14:20:26;6.38;;;3.80;;
19621;SDS011;9958;33.196;-97.114;2022-11-15T14:22:59;4.32;;;3.10;;
19621;SDS011;9958;33.196;-97.114;2022-11-15T14:25:29;5.35;;;3.60;;
19621;SDS011;9958;33.196;-97.114;2022-11-15T14:28:15;6.82;;;3.53;;
19621;SDS011;9958;33.196;-97.114;2022-11-15T14:30:56;6.35;;;4.03;;
19621;SDS011;9958;33.196;-97.114;2022-11-15T14:33:27;6.22;;;3.47;;
19621;SDS011;9958;33.196;-97.114;2022-11-15T14:35:57;5.70;;;3.88;;
19621;SDS011;9958;33.196;-97.114;2022-11-15T14:38:31;4.05;;;3.38;;
19621;SDS011;9958;33.196;-97.114;2022-11-15T14:41:00;4.45;;;3.80;;
19621;SDS011;9958;33.196;-97.114;2022-11-15T14:43:28;4.82;;;3.00;;
19621;SDS011;9958;33.196;-97.114;2022-11-15T14:45:58;5.70;;;3.20;;
19621;SDS011;9958;33.196;-97.114;2022-11-15T14:48:26;5.28;;;3.47;;
19621;SDS011;9958;33.196;-97.114;2022-11-15T14:50:55;6.10;;;3.50;;
19621;SDS011;9958;33.196;-97.114;2022-11-15T14:53:24;5.20;;;3.40;;
19621;SDS011;9958;33.196;-97.114;2022-11-15T14:55:54;4.90;;;3.10;;
19621;SDS011;9958;33.196;-97.114;2022-11-15T14:58:22;5.80;;;3.55;;
19621;SDS011;9958;33.196;-97.114;2022-11-15T15:00:51;4.78;;;3.20;;
19621;SDS011;9958;33.196;-97.114;2022-11-15T15:03:19;5.03;;;3.58;;
19621;SDS011;9958;33.196;-97.114;2022-11-15T15:05:47;6.05;;;3.85;;
19621;SDS011;9958;33.196;-97.114;2022-11-15T15:08:15;5.80;;;3.95;;
19621;SDS011;9958;33.196;-97.114;2022-11-15T15:10:44;8.18;;;3.10;;
19621;SDS011;9958;33.196;-97.114;2022-11-15T15:13:16;5.45;;;3.08;;
19621;SDS011;9958;33.196;-97.114;2022-11-15T15:15:51;5.93;;;3.30;;
19621;SDS011;9958;33.196;-97.114;2022-11-15T15:18:22;6.43;;;3.10;;
19621;SDS011;9958;33.196;-97.114;2022-11-15T15:20:53;4.43;;;2.85;;
19621;SDS011;9958;33.196;-97.114;2022-11-15T15:23:25;5.15;;;3.53;;
19621;SDS011;9958;33.196;-97.114;2022-11-15T15:25:56;7.32;;;3.72;;
19621;SDS011;9958;33.196;-97.114;2022-11-15T15:28:26;5.28;;;3.88;;
19621;SDS011;9958;33.196;-97.114;2022-11-15T15:30:55;6.72;;;4.13;;
19621;SDS011;9958;33.196;-97.114;2022-11-15T15:33:23;6.93;;;3.70;;
19621;SDS011;9958;33.196;-97.114;2022-11-15T15:35:51;5.60;;;3.50;;